sensor_id;sensor_type;location;lat;lon;timestamp;temperature;humidity
9323;DHT22;4700;48.822;9.270;2023-02-03T00:02:42;6.70;1.00
9323;DHT22;4700;48.822;9.270;2023-02-03T00:05:29;6.70;1.00
9323;DHT22;4700;48.822;9.270;2023-02-03T00:08:16;6.70;1.00
9323;DHT22;4700;48.822;9.270;2023-02-03T00:11:03;6.80;1.00
9323;DHT22;4700;48.822;9.270;2023-02-03T00:13:49;6.50;1.00
9323;DHT22;4700;48.822;9.270;2023-02-03T00:16:35;6.50;1.00
9323;DHT22;4700;48.822;9.270;2023-02-03T00:19:21;6.70;1.00
9323;DHT22;4700;48.822;9.270;2023-02-03T00:22:08;6.70;1.00
9323;DHT22;4700;48.822;9.270;2023-02-03T00:24:53;6.70;1.00
9323;DHT22;4700;48.822;9.270;2023-02-03T00:27:39;6.70;1.00
9323;DHT22;4700;48.822;9.270;2023-02-03T00:30:25;6.70;1.00
9323;DHT22;4700;48.822;9.270;2023-02-03T00:33:11;6.70;1.00
9323;DHT22;4700;48.822;9.270;2023-02-03T00:35:57;6.60;1.00
9323;DHT22;4700;48.822;9.270;2023-02-03T00:38:44;6.80;1.00
9323;DHT22;4700;48.822;9.270;2023-02-03T00:41:30;6.80;1.00
9323;DHT22;4700;48.822;9.270;2023-02-03T00:44:16;6.70;1.00
9323;DHT22;4700;48.822;9.270;2023-02-03T00:47:04;6.80;1.00
9323;DHT22;4700;48.822;9.270;2023-02-03T00:49:50;6.30;1.00
9323;DHT22;4700;48.822;9.270;2023-02-03T00:52:36;6.80;1.00
9323;DHT22;4700;48.822;9.270;2023-02-03T00:55:23;6.80;1.00
9323;DHT22;4700;48.822;9.270;2023-02-03T00:58:08;6.70;1.00
9323;DHT22;4700;48.822;9.270;2023-02-03T01:00:54;6.80;1.00
9323;DHT22;4700;48.822;9.270;2023-02-03T01:03:41;6.70;1.00
9323;DHT22;4700;48.822;9.270;2023-02-03T01:06:27;6.70;1.00
9323;DHT22;4700;48.822;9.270;2023-02-03T01:09:13;6.70;1.00
9323;DHT22;4700;48.822;9.270;2023-02-03T01:12:00;6.70;1.00
9323;DHT22;4700;48.822;9.270;2023-02-03T01:14:46;6.70;1.00
9323;DHT22;4700;48.822;9.270;2023-02-03T01:17:32;6.80;1.00
9323;DHT22;4700;48.822;9.270;2023-02-03T01:20:18;6.70;1.00
9323;DHT22;4700;48.822;9.270;2023-02-03T01:23:04;6.70;1.00
9323;DHT22;4700;48.822;9.270;2023-02-03T01:25:50;6.70;1.00
9323;DHT22;4700;48.822;9.270;2023-02-03T01:28:37;6.70;1.00
9323;DHT22;4700;48.822;9.270;2023-02-03T01:31:25;6.80;1.00
9323;DHT22;4700;48.822;9.270;2023-02-03T01:34:13;6.70;1.00
9323;DHT22;4700;48.822;9.270;2023-02-03T01:36:59;6.70;1.00
9323;DHT22;4700;48.822;9.270;2023-02-03T01:39:45;6.60;1.00
9323;DHT22;4700;48.822;9.270;2023-02-03T01:42:32;6.60;1.00
9323;DHT22;4700;48.822;9.270;2023-02-03T01:45:19;6.60;1.00
9323;DHT22;4700;48.822;9.270;2023-02-03T01:48:05;6.60;1.00
9323;DHT22;4700;48.822;9.270;2023-02-03T01:50:52;6.60;1.00
9323;DHT22;4700;48.822;9.270;2023-02-03T01:53:40;6.50;1.00
9323;DHT22;4700;48.822;9.270;2023-02-03T01:56:29;6.50;1.00
9323;DHT22;4700;48.822;9.270;2023-02-03T01:59:18;6.60;1.00
9323;DHT22;4700;48.822;9.270;2023-02-03T02:02:07;6.60;1.00
9323;DHT22;4700;48.822;9.270;2023-02-03T02:04:57;6.50;1.00
9323;DHT22;4700;48.822;9.270;2023-02-03T02:07:47;6.60;1.00
9323;DHT22;4700;48.822;9.270;2023-02-03T02:10:32;6.60;1.00
9323;DHT22;4700;48.822;9.270;2023-02-03T02:13:19;6.60;1.00
9323;DHT22;4700;48.822;9.270;2023-02-03T02:16:10;6.50;1.00
9323;DHT22;4700;48.822;9.270;2023-02-03T02:19:09;6.60;1.00
9323;DHT22;4700;48.822;9.270;2023-02-03T02:22:09;6.60;1.00
9323;DHT22;4700;48.822;9.270;2023-02-03T02:25:27;6.70;1.00
9323;DHT22;4700;48.822;9.270;2023-02-03T02:28:34;6.60;1.00
9323;DHT22;4700;48.822;9.270;2023-02-03T02:31:50;6.60;1.00
9323;DHT22;4700;48.822;9.270;2023-02-03T02:34:44;6.50;1.00
9323;DHT22;4700;48.822;9.270;2023-02-03T02:37:37;6.50;1.00
9323;DHT22;4700;48.822;9.270;2023-02-03T02:40:34;6.60;1.00
9323;DHT22;4700;48.822;9.270;2023-02-03T02:43:25;6.60;1.00
9323;DHT22;4700;48.822;9.270;2023-02-03T02:46:14;6.50;1.00
9323;DHT22;4700;48.822;9.270;2023-02-03T02:49:07;6.20;1.00
9323;DHT22;4700;48.822;9.270;2023-02-03T02:51:54;6.30;1.00
9323;DHT22;4700;48.822;9.270;2023-02-03T02:54:45;6.30;1.00
9323;DHT22;4700;48.822;9.270;2023-02-03T02:57:34;6.40;1.00
9323;DHT22;4700;48.822;9.270;2023-02-03T03:00:22;6.40;1.00
9323;DHT22;4700;48.822;9.270;2023-02-03T03:03:15;6.40;1.00
9323;DHT22;4700;48.822;9.270;2023-02-03T03:06:06;6.50;1.00
9323;DHT22;4700;48.822;9.270;2023-02-03T03:08:59;6.40;1.00
9323;DHT22;4700;48.822;9.270;2023-02-03T03:11:49;6.20;1.00
9323;DHT22;4700;48.822;9.270;2023-02-03T03:14:36;6.40;1.00
9323;DHT22;4700;48.822;9.270;2023-02-03T03:17:25;6.30;1.00
9323;DHT22;4700;48.822;9.270;2023-02-03T03:20:16;6.50;1.00
9323;DHT22;4700;48.822;9.270;2023-02-03T03:23:06;6.50;1.00
9323;DHT22;4700;48.822;9.270;2023-02-03T03:25:59;6.50;1.00
9323;DHT22;4700;48.822;9.270;2023-02-03T03:28:48;6.40;1.00
9323;DHT22;4700;48.822;9.270;2023-02-03T03:31:37;6.50;1.00
9323;DHT22;4700;48.822;9.270;2023-02-03T03:34:23;6.70;1.00
9323;DHT22;4700;48.822;9.270;2023-02-03T03:37:11;6.50;1.00
9323;DHT22;4700;48.822;9.270;2023-02-03T03:40:07;6.40;1.00
9323;DHT22;4700;48.822;9.270;2023-02-03T03:42:57;6.60;1.00
9323;DHT22;4700;48.822;9.270;2023-02-03T03:45:47;6.60;1.00
9323;DHT22;4700;48.822;9.270;2023-02-03T03:48:38;6.60;1.00
9323;DHT22;4700;48.822;9.270;2023-02-03T03:51:29;6.70;1.00
9323;DHT22;4700;48.822;9.270;2023-02-03T03:54:18;6.70;1.00
9323;DHT22;4700;48.822;9.270;2023-02-03T03:57:11;6.60;1.00
9323;DHT22;4700;48.822;9.270;2023-02-03T03:59:59;6.70;1.00
9323;DHT22;4700;48.822;9.270;2023-02-03T04:02:50;6.60;1.00
9323;DHT22;4700;48.822;9.270;2023-02-03T04:05:37;6.70;1.00
9323;DHT22;4700;48.822;9.270;2023-02-03T04:08:23;6.70;1.00
9323;DHT22;4700;48.822;9.270;2023-02-03T04:10:56;6.80;1.00
9323;DHT22;4700;48.822;9.270;2023-02-03T04:13:43;6.60;1.00
9323;DHT22;4700;48.822;9.270;2023-02-03T04:16:29;6.60;1.00
9323;DHT22;4700;48.822;9.270;2023-02-03T04:19:15;6.60;1.00
9323;DHT22;4700;48.822;9.270;2023-02-03T04:22:01;6.80;1.00
9323;DHT22;4700;48.822;9.270;2023-02-03T04:24:46;6.80;1.00
9323;DHT22;4700;48.822;9.270;2023-02-03T04:27:33;6.70;1.00
9323;DHT22;4700;48.822;9.270;2023-02-03T04:30:20;6.60;1.00
9323;DHT22;4700;48.822;9.270;2023-02-03T04:33:06;6.70;1.00
9323;DHT22;4700;48.822;9.270;2023-02-03T04:35:51;6.70;1.00
9323;DHT22;4700;48.822;9.270;2023-02-03T04:38:37;6.60;1.00
9323;DHT22;4700;48.822;9.270;2023-02-03T04:41:23;6.60;1.00
9323;DHT22;4700;48.822;9.270;2023-02-03T04:44:09;6.70;1.00
9323;DHT22;4700;48.822;9.270;2023-02-03T04:46:56;6.50;1.00
9323;DHT22;4700;48.822;9.270;2023-02-03T04:49:42;6.40;1.00
9323;DHT22;4700;48.822;9.270;2023-02-03T04:52:28;8.10;1.00
9323;DHT22;4700;48.822;9.270;2023-02-03T04:55:14;6.20;1.00
9323;DHT22;4700;48.822;9.270;2023-02-03T04:58:00;6.00;1.00
9323;DHT22;4700;48.822;9.270;2023-02-03T05:00:46;6.20;1.00
9323;DHT22;4700;48.822;9.270;2023-02-03T05:03:33;6.00;1.00
9323;DHT22;4700;48.822;9.270;2023-02-03T05:06:22;6.10;1.00
9323;DHT22;4700;48.822;9.270;2023-02-03T05:09:07;6.10;1.00
9323;DHT22;4700;48.822;9.270;2023-02-03T05:11:53;6.10;1.00
9323;DHT22;4700;48.822;9.270;2023-02-03T05:14:41;5.90;1.00
9323;DHT22;4700;48.822;9.270;2023-02-03T05:17:27;6.00;1.00
9323;DHT22;4700;48.822;9.270;2023-02-03T05:20:14;6.00;1.00
9323;DHT22;4700;48.822;9.270;2023-02-03T05:22:59;5.80;1.00
9323;DHT22;4700;48.822;9.270;2023-02-03T05:25:45;6.00;1.00
9323;DHT22;4700;48.822;9.270;2023-02-03T05:28:31;5.70;1.00
9323;DHT22;4700;48.822;9.270;2023-02-03T05:31:17;5.80;1.00
9323;DHT22;4700;48.822;9.270;2023-02-03T05:34:02;6.00;1.00
9323;DHT22;4700;48.822;9.270;2023-02-03T05:36:49;6.00;1.00
9323;DHT22;4700;48.822;9.270;2023-02-03T05:39:44;6.00;1.00
9323;DHT22;4700;48.822;9.270;2023-02-03T05:42:32;5.80;1.00
9323;DHT22;4700;48.822;9.270;2023-02-03T05:45:17;6.00;1.00
9323;DHT22;4700;48.822;9.270;2023-02-03T05:48:03;6.10;1.00
9323;DHT22;4700;48.822;9.270;2023-02-03T05:50:52;6.10;1.00
9323;DHT22;4700;48.822;9.270;2023-02-03T05:53:39;6.00;1.00
9323;DHT22;4700;48.822;9.270;2023-02-03T05:56:25;6.10;1.00
9323;DHT22;4700;48.822;9.270;2023-02-03T05:59:11;6.10;1.00
9323;DHT22;4700;48.822;9.270;2023-02-03T06:01:57;6.10;1.00
9323;DHT22;4700;48.822;9.270;2023-02-03T06:04:42;5.90;1.00
9323;DHT22;4700;48.822;9.270;2023-02-03T06:07:28;6.20;1.00
9323;DHT22;4700;48.822;9.270;2023-02-03T06:10:16;6.10;1.00
9323;DHT22;4700;48.822;9.270;2023-02-03T06:13:11;6.20;1.00
9323;DHT22;4700;48.822;9.270;2023-02-03T06:15:57;6.10;1.00
9323;DHT22;4700;48.822;9.270;2023-02-03T06:18:43;6.30;1.00
9323;DHT22;4700;48.822;9.270;2023-02-03T06:21:28;6.30;1.00
9323;DHT22;4700;48.822;9.270;2023-02-03T06:24:14;6.20;1.00
9323;DHT22;4700;48.822;9.270;2023-02-03T06:27:03;6.10;1.00
9323;DHT22;4700;48.822;9.270;2023-02-03T06:29:49;6.30;1.00
9323;DHT22;4700;48.822;9.270;2023-02-03T06:32:35;6.30;1.00
9323;DHT22;4700;48.822;9.270;2023-02-03T06:35:20;6.20;1.00
9323;DHT22;4700;48.822;9.270;2023-02-03T06:38:06;6.00;1.00
9323;DHT22;4700;48.822;9.270;2023-02-03T06:40:52;6.20;1.00
9323;DHT22;4700;48.822;9.270;2023-02-03T06:43:39;6.20;1.00
9323;DHT22;4700;48.822;9.270;2023-02-03T06:46:25;6.10;1.00
9323;DHT22;4700;48.822;9.270;2023-02-03T06:49:13;6.10;1.00
9323;DHT22;4700;48.822;9.270;2023-02-03T06:51:59;6.10;1.00
9323;DHT22;4700;48.822;9.270;2023-02-03T06:54:45;6.00;1.00
9323;DHT22;4700;48.822;9.270;2023-02-03T06:57:31;6.00;1.00
9323;DHT22;4700;48.822;9.270;2023-02-03T07:00:19;5.80;1.00
9323;DHT22;4700;48.822;9.270;2023-02-03T07:03:06;5.80;1.00
9323;DHT22;4700;48.822;9.270;2023-02-03T07:05:52;6.10;1.00
9323;DHT22;4700;48.822;9.270;2023-02-03T07:08:38;6.10;1.00
9323;DHT22;4700;48.822;9.270;2023-02-03T07:11:25;6.10;1.00
9323;DHT22;4700;48.822;9.270;2023-02-03T07:14:10;6.00;1.00
9323;DHT22;4700;48.822;9.270;2023-02-03T07:16:58;6.10;1.00
9323;DHT22;4700;48.822;9.270;2023-02-03T07:19:45;5.90;1.00
9323;DHT22;4700;48.822;9.270;2023-02-03T07:22:31;6.10;1.00
9323;DHT22;4700;48.822;9.270;2023-02-03T07:25:17;5.80;1.00
9323;DHT22;4700;48.822;9.270;2023-02-03T07:28:03;6.10;1.00
9323;DHT22;4700;48.822;9.270;2023-02-03T07:30:49;6.00;1.00
9323;DHT22;4700;48.822;9.270;2023-02-03T07:33:37;6.10;1.00
9323;DHT22;4700;48.822;9.270;2023-02-03T07:36:23;5.90;1.00
9323;DHT22;4700;48.822;9.270;2023-02-03T07:39:09;6.20;1.00
9323;DHT22;4700;48.822;9.270;2023-02-03T07:44:25;6.20;1.00
9323;DHT22;4700;48.822;9.270;2023-02-03T07:47:11;6.20;1.00
9323;DHT22;4700;48.822;9.270;2023-02-03T07:49:59;6.20;1.00
9323;DHT22;4700;48.822;9.270;2023-02-03T07:52:44;5.90;1.00
9323;DHT22;4700;48.822;9.270;2023-02-03T07:55:30;6.30;1.00
9323;DHT22;4700;48.822;9.270;2023-02-03T07:58:17;6.00;1.00
9323;DHT22;4700;48.822;9.270;2023-02-03T08:01:09;6.20;1.00
9323;DHT22;4700;48.822;9.270;2023-02-03T08:03:58;6.00;1.00
9323;DHT22;4700;48.822;9.270;2023-02-03T08:06:50;6.20;1.00
9323;DHT22;4700;48.822;9.270;2023-02-03T08:09:36;6.20;1.00
9323;DHT22;4700;48.822;9.270;2023-02-03T08:12:25;6.30;1.00
9323;DHT22;4700;48.822;9.270;2023-02-03T08:15:11;6.20;1.00
9323;DHT22;4700;48.822;9.270;2023-02-03T08:17:56;6.30;1.00
9323;DHT22;4700;48.822;9.270;2023-02-03T08:20:42;6.40;1.00
9323;DHT22;4700;48.822;9.270;2023-02-03T08:23:29;6.40;1.00
9323;DHT22;4700;48.822;9.270;2023-02-03T08:26:17;6.60;1.00
9323;DHT22;4700;48.822;9.270;2023-02-03T08:29:03;6.50;1.00
9323;DHT22;4700;48.822;9.270;2023-02-03T08:31:51;6.40;1.00
9323;DHT22;4700;48.822;9.270;2023-02-03T08:34:38;6.50;1.00
9323;DHT22;4700;48.822;9.270;2023-02-03T08:37:27;6.50;1.00
9323;DHT22;4700;48.822;9.270;2023-02-03T08:40:16;6.00;1.00
9323;DHT22;4700;48.822;9.270;2023-02-03T08:43:03;6.70;1.00
9323;DHT22;4700;48.822;9.270;2023-02-03T08:45:48;6.60;1.00
9323;DHT22;4700;48.822;9.270;2023-02-03T08:48:34;6.70;1.00
9323;DHT22;4700;48.822;9.270;2023-02-03T08:51:20;6.80;1.00
9323;DHT22;4700;48.822;9.270;2023-02-03T08:54:07;6.80;1.00
9323;DHT22;4700;48.822;9.270;2023-02-03T08:56:54;6.60;1.00
9323;DHT22;4700;48.822;9.270;2023-02-03T08:59:42;6.70;1.00
9323;DHT22;4700;48.822;9.270;2023-02-03T09:02:28;6.60;1.00
9323;DHT22;4700;48.822;9.270;2023-02-03T09:05:14;6.70;1.00
9323;DHT22;4700;48.822;9.270;2023-02-03T09:08:01;6.70;1.00
9323;DHT22;4700;48.822;9.270;2023-02-03T09:10:47;6.90;1.00
9323;DHT22;4700;48.822;9.270;2023-02-03T09:13:34;6.90;1.00
9323;DHT22;4700;48.822;9.270;2023-02-03T09:16:21;7.20;1.00
9323;DHT22;4700;48.822;9.270;2023-02-03T09:19:07;7.30;1.00
9323;DHT22;4700;48.822;9.270;2023-02-03T09:21:52;7.20;1.00
9323;DHT22;4700;48.822;9.270;2023-02-03T09:24:40;7.80;1.00
9323;DHT22;4700;48.822;9.270;2023-02-03T09:27:26;8.60;1.00
9323;DHT22;4700;48.822;9.270;2023-02-03T09:30:14;9.00;1.00
9323;DHT22;4700;48.822;9.270;2023-02-03T09:33:00;9.40;1.00
9323;DHT22;4700;48.822;9.270;2023-02-03T09:35:51;9.70;1.00
9323;DHT22;4700;48.822;9.270;2023-02-03T09:38:38;9.40;1.00
9323;DHT22;4700;48.822;9.270;2023-02-03T09:41:39;9.20;1.00
9323;DHT22;4700;48.822;9.270;2023-02-03T09:44:33;9.30;1.00
9323;DHT22;4700;48.822;9.270;2023-02-03T09:47:23;9.40;1.00
9323;DHT22;4700;48.822;9.270;2023-02-03T09:50:14;9.50;1.00
9323;DHT22;4700;48.822;9.270;2023-02-03T09:53:11;9.50;1.00
9323;DHT22;4700;48.822;9.270;2023-02-03T09:55:59;9.20;1.00
9323;DHT22;4700;48.822;9.270;2023-02-03T09:58:45;8.80;1.00
9323;DHT22;4700;48.822;9.270;2023-02-03T10:01:37;8.90;1.00
9323;DHT22;4700;48.822;9.270;2023-02-03T10:04:33;8.90;1.00
9323;DHT22;4700;48.822;9.270;2023-02-03T10:07:26;9.00;1.00
9323;DHT22;4700;48.822;9.270;2023-02-03T10:10:17;9.20;1.00
9323;DHT22;4700;48.822;9.270;2023-02-03T10:13:19;9.40;1.00
9323;DHT22;4700;48.822;9.270;2023-02-03T10:16:19;9.20;1.00
9323;DHT22;4700;48.822;9.270;2023-02-03T10:19:11;9.10;1.00
9323;DHT22;4700;48.822;9.270;2023-02-03T10:22:03;9.00;1.00
9323;DHT22;4700;48.822;9.270;2023-02-03T10:24:51;9.20;1.00
9323;DHT22;4700;48.822;9.270;2023-02-03T10:27:40;9.30;1.00
9323;DHT22;4700;48.822;9.270;2023-02-03T10:30:30;9.10;1.00
9323;DHT22;4700;48.822;9.270;2023-02-03T10:33:18;9.10;1.00
9323;DHT22;4700;48.822;9.270;2023-02-03T10:36:13;9.00;1.00
9323;DHT22;4700;48.822;9.270;2023-02-03T10:39:13;8.90;1.00
9323;DHT22;4700;48.822;9.270;2023-02-03T10:42:04;8.80;1.00
9323;DHT22;4700;48.822;9.270;2023-02-03T10:44:53;8.70;1.00
9323;DHT22;4700;48.822;9.270;2023-02-03T10:47:43;8.70;1.00
9323;DHT22;4700;48.822;9.270;2023-02-03T10:50:30;8.90;1.00
9323;DHT22;4700;48.822;9.270;2023-02-03T10:53:24;9.20;1.00
9323;DHT22;4700;48.822;9.270;2023-02-03T10:56:13;9.40;1.00
9323;DHT22;4700;48.822;9.270;2023-02-03T10:59:01;9.50;1.00
9323;DHT22;4700;48.822;9.270;2023-02-03T11:01:48;9.70;1.00
9323;DHT22;4700;48.822;9.270;2023-02-03T11:04:34;9.90;1.00
9323;DHT22;4700;48.822;9.270;2023-02-03T11:07:25;9.80;1.00
9323;DHT22;4700;48.822;9.270;2023-02-03T11:10:29;9.80;1.00
9323;DHT22;4700;48.822;9.270;2023-02-03T11:13:20;9.60;1.00
9323;DHT22;4700;48.822;9.270;2023-02-03T11:16:11;9.60;1.00
9323;DHT22;4700;48.822;9.270;2023-02-03T11:18:58;9.40;1.00
9323;DHT22;4700;48.822;9.270;2023-02-03T11:21:48;9.20;1.00
9323;DHT22;4700;48.822;9.270;2023-02-03T11:24:40;10.30;1.00
9323;DHT22;4700;48.822;9.270;2023-02-03T11:27:30;9.40;1.00
9323;DHT22;4700;48.822;9.270;2023-02-03T11:30:21;8.90;1.00
9323;DHT22;4700;48.822;9.270;2023-02-03T11:33:16;9.10;1.00
9323;DHT22;4700;48.822;9.270;2023-02-03T11:36:02;9.20;1.00
9323;DHT22;4700;48.822;9.270;2023-02-03T11:38:49;9.20;1.00
9323;DHT22;4700;48.822;9.270;2023-02-03T11:41:37;9.10;1.00
9323;DHT22;4700;48.822;9.270;2023-02-03T11:44:24;9.00;1.00
9323;DHT22;4700;48.822;9.270;2023-02-03T11:47:14;8.90;1.00
9323;DHT22;4700;48.822;9.270;2023-02-03T11:50:22;8.90;1.00
9323;DHT22;4700;48.822;9.270;2023-02-03T11:53:24;9.00;1.00
9323;DHT22;4700;48.822;9.270;2023-02-03T11:56:38;9.00;1.00
9323;DHT22;4700;48.822;9.270;2023-02-03T11:59:42;9.00;1.00
9323;DHT22;4700;48.822;9.270;2023-02-03T12:02:51;9.00;1.00
9323;DHT22;4700;48.822;9.270;2023-02-03T12:05:57;9.10;1.00
9323;DHT22;4700;48.822;9.270;2023-02-03T12:08:56;9.30;1.00
9323;DHT22;4700;48.822;9.270;2023-02-03T12:12:03;9.20;1.00
9323;DHT22;4700;48.822;9.270;2023-02-03T12:15:00;9.20;1.00
9323;DHT22;4700;48.822;9.270;2023-02-03T12:18:03;9.20;1.00
9323;DHT22;4700;48.822;9.270;2023-02-03T12:21:10;9.00;1.00
9323;DHT22;4700;48.822;9.270;2023-02-03T12:24:01;8.90;1.00
9323;DHT22;4700;48.822;9.270;2023-02-03T12:26:55;8.90;1.00
9323;DHT22;4700;48.822;9.270;2023-02-03T12:29:49;8.90;1.00
9323;DHT22;4700;48.822;9.270;2023-02-03T12:32:41;8.90;1.00
9323;DHT22;4700;48.822;9.270;2023-02-03T12:35:33;8.70;1.00
9323;DHT22;4700;48.822;9.270;2023-02-03T12:38:28;9.00;1.00
9323;DHT22;4700;48.822;9.270;2023-02-03T12:41:17;8.70;1.00
9323;DHT22;4700;48.822;9.270;2023-02-03T12:44:12;8.60;1.00
9323;DHT22;4700;48.822;9.270;2023-02-03T12:47:03;8.70;1.00
9323;DHT22;4700;48.822;9.270;2023-02-03T12:49:52;8.70;1.00
9323;DHT22;4700;48.822;9.270;2023-02-03T12:52:43;8.70;1.00
9323;DHT22;4700;48.822;9.270;2023-02-03T12:55:38;8.70;1.00
9323;DHT22;4700;48.822;9.270;2023-02-03T12:58:26;8.80;1.00
9323;DHT22;4700;48.822;9.270;2023-02-03T13:01:19;8.60;1.00
9323;DHT22;4700;48.822;9.270;2023-02-03T13:04:11;8.80;1.00
9323;DHT22;4700;48.822;9.270;2023-02-03T13:07:05;8.70;1.00
9323;DHT22;4700;48.822;9.270;2023-02-03T13:09:58;8.70;1.00
9323;DHT22;4700;48.822;9.270;2023-02-03T13:12:46;8.80;1.00
9323;DHT22;4700;48.822;9.270;2023-02-03T13:15:38;8.70;1.00
9323;DHT22;4700;48.822;9.270;2023-02-03T13:18:27;8.70;1.00
9323;DHT22;4700;48.822;9.270;2023-02-03T13:21:16;8.70;1.00
9323;DHT22;4700;48.822;9.270;2023-02-03T13:24:02;8.60;1.00
9323;DHT22;4700;48.822;9.270;2023-02-03T13:27:10;8.60;1.00
9323;DHT22;4700;48.822;9.270;2023-02-03T13:30:10;8.60;1.00
9323;DHT22;4700;48.822;9.270;2023-02-03T13:36:46;8.70;1.00
9323;DHT22;4700;48.822;9.270;2023-02-03T13:42:44;8.60;1.00
9323;DHT22;4700;48.822;9.270;2023-02-03T13:45:32;8.60;1.00
9323;DHT22;4700;48.822;9.270;2023-02-03T13:48:24;8.60;1.00
9323;DHT22;4700;48.822;9.270;2023-02-03T13:51:14;8.60;1.00
9323;DHT22;4700;48.822;9.270;2023-02-03T13:54:03;8.60;1.00
9323;DHT22;4700;48.822;9.270;2023-02-03T13:56:54;8.50;1.00
9323;DHT22;4700;48.822;9.270;2023-02-03T13:59:48;8.50;1.00
9323;DHT22;4700;48.822;9.270;2023-02-03T14:02:44;8.60;1.00
9323;DHT22;4700;48.822;9.270;2023-02-03T14:05:41;8.60;1.00
9323;DHT22;4700;48.822;9.270;2023-02-03T14:08:52;8.60;1.00
9323;DHT22;4700;48.822;9.270;2023-02-03T14:11:48;8.60;1.00
9323;DHT22;4700;48.822;9.270;2023-02-03T14:14:42;8.50;1.00
9323;DHT22;4700;48.822;9.270;2023-02-03T14:21:12;8.50;1.00
9323;DHT22;4700;48.822;9.270;2023-02-03T14:24:06;8.50;1.00
9323;DHT22;4700;48.822;9.270;2023-02-03T14:26:54;8.50;1.00
9323;DHT22;4700;48.822;9.270;2023-02-03T14:29:42;8.60;1.00
9323;DHT22;4700;48.822;9.270;2023-02-03T14:32:47;8.40;1.00
9323;DHT22;4700;48.822;9.270;2023-02-03T14:35:36;8.70;1.00
9323;DHT22;4700;48.822;9.270;2023-02-03T14:38:30;8.70;1.00
9323;DHT22;4700;48.822;9.270;2023-02-03T14:41:20;8.70;1.00
9323;DHT22;4700;48.822;9.270;2023-02-03T14:44:16;8.60;1.00
9323;DHT22;4700;48.822;9.270;2023-02-03T14:47:06;8.80;1.00
9323;DHT22;4700;48.822;9.270;2023-02-03T14:50:16;9.10;1.00
9323;DHT22;4700;48.822;9.270;2023-02-03T14:53:17;8.60;1.00
9323;DHT22;4700;48.822;9.270;2023-02-03T14:56:15;8.70;1.00
9323;DHT22;4700;48.822;9.270;2023-02-03T14:59:03;8.60;1.00
9323;DHT22;4700;48.822;9.270;2023-02-03T15:02:11;8.60;1.00
9323;DHT22;4700;48.822;9.270;2023-02-03T15:08:46;8.40;1.00
9323;DHT22;4700;48.822;9.270;2023-02-03T15:11:43;8.50;1.00
9323;DHT22;4700;48.822;9.270;2023-02-03T15:14:29;8.50;1.00
9323;DHT22;4700;48.822;9.270;2023-02-03T15:17:21;8.50;1.00
9323;DHT22;4700;48.822;9.270;2023-02-03T15:20:33;8.40;1.00
9323;DHT22;4700;48.822;9.270;2023-02-03T15:23:21;8.40;1.00
9323;DHT22;4700;48.822;9.270;2023-02-03T15:26:12;8.40;1.00
9323;DHT22;4700;48.822;9.270;2023-02-03T15:29:01;8.30;1.00
9323;DHT22;4700;48.822;9.270;2023-02-03T15:31:50;8.40;1.00
9323;DHT22;4700;48.822;9.270;2023-02-03T15:34:40;8.30;1.00
9323;DHT22;4700;48.822;9.270;2023-02-03T15:37:30;8.30;1.00
9323;DHT22;4700;48.822;9.270;2023-02-03T15:40:19;8.40;1.00
9323;DHT22;4700;48.822;9.270;2023-02-03T15:43:11;8.40;1.00
9323;DHT22;4700;48.822;9.270;2023-02-03T15:46:03;9.30;1.00
9323;DHT22;4700;48.822;9.270;2023-02-03T15:48:53;8.30;1.00
9323;DHT22;4700;48.822;9.270;2023-02-03T15:51:44;8.30;1.00
9323;DHT22;4700;48.822;9.270;2023-02-03T15:54:34;8.30;1.00
9323;DHT22;4700;48.822;9.270;2023-02-03T15:57:27;8.20;1.00
9323;DHT22;4700;48.822;9.270;2023-02-03T16:00:31;8.30;1.00
9323;DHT22;4700;48.822;9.270;2023-02-03T16:03:21;8.30;1.00
9323;DHT22;4700;48.822;9.270;2023-02-03T16:06:10;8.20;1.00
9323;DHT22;4700;48.822;9.270;2023-02-03T16:09:00;8.10;1.00
9323;DHT22;4700;48.822;9.270;2023-02-03T16:11:46;8.00;1.00
9323;DHT22;4700;48.822;9.270;2023-02-03T16:14:33;8.20;1.00
9323;DHT22;4700;48.822;9.270;2023-02-03T16:17:24;8.00;1.00
9323;DHT22;4700;48.822;9.270;2023-02-03T16:20:24;8.10;1.00
9323;DHT22;4700;48.822;9.270;2023-02-03T16:23:18;8.00;1.00
9323;DHT22;4700;48.822;9.270;2023-02-03T16:26:15;7.90;1.00
9323;DHT22;4700;48.822;9.270;2023-02-03T16:29:12;7.80;1.00
9323;DHT22;4700;48.822;9.270;2023-02-03T16:32:17;7.90;1.00
9323;DHT22;4700;48.822;9.270;2023-02-03T16:35:22;7.70;1.00
9323;DHT22;4700;48.822;9.270;2023-02-03T16:38:26;7.80;1.00
9323;DHT22;4700;48.822;9.270;2023-02-03T16:41:30;7.80;1.00
9323;DHT22;4700;48.822;9.270;2023-02-03T16:44:33;7.80;1.00
9323;DHT22;4700;48.822;9.270;2023-02-03T16:47:23;7.50;1.00
9323;DHT22;4700;48.822;9.270;2023-02-03T16:50:28;7.70;1.00
9323;DHT22;4700;48.822;9.270;2023-02-03T16:53:32;7.80;1.00
9323;DHT22;4700;48.822;9.270;2023-02-03T16:56:18;7.70;1.00
9323;DHT22;4700;48.822;9.270;2023-02-03T16:59:04;7.80;1.00
9323;DHT22;4700;48.822;9.270;2023-02-03T17:01:50;7.80;1.00
9323;DHT22;4700;48.822;9.270;2023-02-03T17:04:35;7.80;1.00
9323;DHT22;4700;48.822;9.270;2023-02-03T17:07:22;7.60;1.00
9323;DHT22;4700;48.822;9.270;2023-02-03T17:10:09;7.60;1.00
9323;DHT22;4700;48.822;9.270;2023-02-03T17:12:55;7.80;1.00
9323;DHT22;4700;48.822;9.270;2023-02-03T17:15:46;7.70;1.00
9323;DHT22;4700;48.822;9.270;2023-02-03T17:18:32;7.70;1.00
9323;DHT22;4700;48.822;9.270;2023-02-03T17:21:20;7.70;1.00
9323;DHT22;4700;48.822;9.270;2023-02-03T17:24:08;7.80;1.00
9323;DHT22;4700;48.822;9.270;2023-02-03T17:26:55;7.80;1.00
9323;DHT22;4700;48.822;9.270;2023-02-03T17:29:41;7.90;1.00
9323;DHT22;4700;48.822;9.270;2023-02-03T17:32:27;8.00;1.00
9323;DHT22;4700;48.822;9.270;2023-02-03T17:35:13;8.00;1.00
9323;DHT22;4700;48.822;9.270;2023-02-03T17:37:58;7.90;1.00
9323;DHT22;4700;48.822;9.270;2023-02-03T17:40:46;8.00;1.00
9323;DHT22;4700;48.822;9.270;2023-02-03T17:43:32;8.00;1.00
9323;DHT22;4700;48.822;9.270;2023-02-03T17:46:19;8.10;1.00
9323;DHT22;4700;48.822;9.270;2023-02-03T17:49:08;8.00;1.00
9323;DHT22;4700;48.822;9.270;2023-02-03T17:51:53;7.50;1.00
9323;DHT22;4700;48.822;9.270;2023-02-03T17:54:40;8.10;1.00
9323;DHT22;4700;48.822;9.270;2023-02-03T17:57:27;8.00;1.00
9323;DHT22;4700;48.822;9.270;2023-02-03T18:00:13;7.80;1.00
9323;DHT22;4700;48.822;9.270;2023-02-03T18:02:59;8.10;1.00
9323;DHT22;4700;48.822;9.270;2023-02-03T18:05:53;8.10;1.00
9323;DHT22;4700;48.822;9.270;2023-02-03T18:08:39;8.10;1.00
9323;DHT22;4700;48.822;9.270;2023-02-03T18:11:25;8.20;1.00
9323;DHT22;4700;48.822;9.270;2023-02-03T18:14:13;8.20;1.00
9323;DHT22;4700;48.822;9.270;2023-02-03T18:16:59;8.10;1.00
9323;DHT22;4700;48.822;9.270;2023-02-03T18:19:45;8.30;1.00
9323;DHT22;4700;48.822;9.270;2023-02-03T18:22:31;8.20;1.00
9323;DHT22;4700;48.822;9.270;2023-02-03T18:25:17;8.20;1.00
9323;DHT22;4700;48.822;9.270;2023-02-03T18:28:03;8.30;1.00
9323;DHT22;4700;48.822;9.270;2023-02-03T18:30:51;8.20;1.00
9323;DHT22;4700;48.822;9.270;2023-02-03T18:33:40;8.20;1.00
9323;DHT22;4700;48.822;9.270;2023-02-03T18:36:26;8.10;1.00
9323;DHT22;4700;48.822;9.270;2023-02-03T18:39:12;8.10;1.00
9323;DHT22;4700;48.822;9.270;2023-02-03T18:41:59;8.00;1.00
9323;DHT22;4700;48.822;9.270;2023-02-03T18:44:47;8.30;1.00
9323;DHT22;4700;48.822;9.270;2023-02-03T18:47:35;8.30;1.00
9323;DHT22;4700;48.822;9.270;2023-02-03T18:50:21;8.30;1.00
9323;DHT22;4700;48.822;9.270;2023-02-03T18:53:07;8.30;1.00
9323;DHT22;4700;48.822;9.270;2023-02-03T18:55:53;8.30;1.00
9323;DHT22;4700;48.822;9.270;2023-02-03T18:58:39;8.00;1.00
9323;DHT22;4700;48.822;9.270;2023-02-03T19:01:27;8.20;1.00
9323;DHT22;4700;48.822;9.270;2023-02-03T19:04:15;8.10;1.00
9323;DHT22;4700;48.822;9.270;2023-02-03T19:07:01;8.10;1.00
9323;DHT22;4700;48.822;9.270;2023-02-03T19:09:47;8.30;1.00
9323;DHT22;4700;48.822;9.270;2023-02-03T19:12:32;8.30;1.00
9323;DHT22;4700;48.822;9.270;2023-02-03T19:15:18;8.30;1.00
9323;DHT22;4700;48.822;9.270;2023-02-03T19:18:04;8.20;1.00
9323;DHT22;4700;48.822;9.270;2023-02-03T19:20:51;8.20;1.00
9323;DHT22;4700;48.822;9.270;2023-02-03T19:23:37;8.00;1.00